createdAt,value
2023-04-14T00:04:54.581Z,100.00
2023-04-14T00:10:56.510Z,100.00
2023-04-14T00:16:58.432Z,100.00
2023-04-14T00:23:00.454Z,100.00
2023-04-14T00:29:02.769Z,100.00
2023-04-14T00:35:05.347Z,100.00
2023-04-14T00:41:07.245Z,100.00
2023-04-14T00:47:09.358Z,99.58
2023-04-14T00:53:13.001Z,99.18
2023-04-14T00:59:17.408Z,98.71
2023-04-14T01:05:19.498Z,99.44
2023-04-14T01:11:24.282Z,99.76
2023-04-14T01:17:43.769Z,100.00
2023-04-14T01:24:25.448Z,100.00
2023-04-14T01:30:28.311Z,99.77
2023-04-14T01:36:52.386Z,100.00
2023-04-14T01:43:02.711Z,100.00
2023-04-14T01:49:05.273Z,100.00
2023-04-14T01:55:09.890Z,100.00
2023-04-14T02:01:12.169Z,100.00
2023-04-14T02:07:15.319Z,100.00
2023-04-14T02:13:19.550Z,100.00
2023-04-14T02:19:22.964Z,100.00
2023-04-14T02:25:32.228Z,100.00
2023-04-14T02:31:36.604Z,100.00
2023-04-14T02:37:43.873Z,100.00
2023-04-14T02:43:55.479Z,100.00
2023-04-14T02:50:00.603Z,100.00
2023-04-14T02:56:03.245Z,100.00
2023-04-14T03:02:07.159Z,100.00
2023-04-14T03:08:14.697Z,100.00
2023-04-14T03:14:19.204Z,100.00
2023-04-14T03:20:21.966Z,100.00
2023-04-14T03:26:28.168Z,100.00
2023-04-14T03:32:41.447Z,100.00
2023-04-14T03:38:45.837Z,100.00
2023-04-14T03:44:53.223Z,100.00
2023-04-14T03:50:58.191Z,100.00
2023-04-14T03:57:04.606Z,100.00
2023-04-14T04:03:07.055Z,100.00
2023-04-14T04:09:14.531Z,100.00
2023-04-14T04:15:16.569Z,100.00
2023-04-14T04:21:19.326Z,100.00
2023-04-14T04:27:28.167Z,100.00
2023-04-14T04:33:31.410Z,100.00
2023-04-14T04:39:33.378Z,100.00
2023-04-14T04:46:19.290Z,100.00
2023-04-14T04:52:21.278Z,100.00
2023-04-14T04:58:23.176Z,100.00
2023-04-14T05:04:25.237Z,100.00
2023-04-14T05:10:27.159Z,100.00
2023-04-14T05:16:29.909Z,100.00
2023-04-14T05:22:34.887Z,100.00
2023-04-14T05:28:36.992Z,100.00
2023-04-14T05:34:38.912Z,100.00
2023-04-14T05:40:41.796Z,100.00
2023-04-14T05:46:43.795Z,100.00
2023-04-14T05:52:46.120Z,100.00
2023-04-14T05:58:48.153Z,100.00
2023-04-14T06:04:50.276Z,100.00
2023-04-14T06:10:52.270Z,100.00
2023-04-14T06:16:55.242Z,100.00
2023-04-14T06:22:57.194Z,100.00
2023-04-14T06:29:00.802Z,100.00
2023-04-14T06:35:05.074Z,98.56
2023-04-14T06:41:07.130Z,98.62
2023-04-14T06:47:09.452Z,97.55
2023-04-14T06:53:11.338Z,97.08
2023-04-14T06:59:13.374Z,89.48
2023-04-14T07:05:15.322Z,82.57
2023-04-14T07:11:17.238Z,84.43
2023-04-14T07:17:20.135Z,85.16
2023-04-14T07:23:22.735Z,86.25
2023-04-14T07:29:24.785Z,88.50
2023-04-14T07:35:26.810Z,88.22
2023-04-14T07:41:28.869Z,88.62
2023-04-14T07:47:30.959Z,86.50
2023-04-14T07:53:33.610Z,86.43
2023-04-14T07:59:35.553Z,84.53
2023-04-14T08:05:37.843Z,84.64
2023-04-14T08:11:39.888Z,84.61
2023-04-14T08:17:41.931Z,82.57
2023-04-14T08:23:44.143Z,81.38
2023-04-14T08:29:46.228Z,79.00
2023-04-14T08:35:56.152Z,80.27
2023-04-14T08:42:02.361Z,79.03
2023-04-14T08:48:05.720Z,73.74
2023-04-14T08:54:11.095Z,69.84
2023-04-14T09:00:14.467Z,68.03
2023-04-14T09:06:18.057Z,63.11
2023-04-14T09:12:21.997Z,60.15
2023-04-14T09:18:26.075Z,56.49
2023-04-14T09:24:34.033Z,56.93
2023-04-14T09:30:36.277Z,54.00
2023-04-14T09:36:38.573Z,56.34
2023-04-14T09:42:42.785Z,57.79
2023-04-14T09:48:56.174Z,50.94
2023-04-14T09:54:58.821Z,50.89
2023-04-14T10:01:05.654Z,50.14
2023-04-14T10:07:08.148Z,48.74
2023-04-14T10:13:15.010Z,47.96
2023-04-14T10:19:16.933Z,44.98
2023-04-14T10:25:19.279Z,46.00
2023-04-14T10:31:40.451Z,42.90
2023-04-14T10:37:55.057Z,43.14
2023-04-14T10:43:56.975Z,44.42
2023-04-14T10:50:04.157Z,47.55
2023-04-14T10:56:07.150Z,44.33
2023-04-14T11:02:31.937Z,41.80
2023-04-14T11:08:37.070Z,39.60
2023-04-14T11:14:39.059Z,40.34
2023-04-14T11:20:44.082Z,40.49
2023-04-14T11:26:46.036Z,40.23
2023-04-14T11:32:54.421Z,39.45
2023-04-14T11:38:56.454Z,39.36
2023-04-14T11:44:58.884Z,41.27
2023-04-14T11:51:03.773Z,42.98
2023-04-14T11:57:14.702Z,44.87
2023-04-14T12:03:17.245Z,43.29
2023-04-14T12:09:19.456Z,39.01
2023-04-14T12:15:21.456Z,35.73
2023-04-14T12:21:23.403Z,38.43
2023-04-14T12:27:27.449Z,40.59
2023-04-14T12:33:31.148Z,36.29
2023-04-14T12:39:47.926Z,32.85
2023-04-14T12:45:51.136Z,36.06
2023-04-14T12:51:53.018Z,38.57
2023-04-14T12:57:56.035Z,40.21
2023-04-14T13:03:58.116Z,39.04
2023-04-14T13:10:01.286Z,40.26
2023-04-14T13:16:14.469Z,37.89
2023-04-14T13:22:18.173Z,34.56
2023-04-14T13:28:20.545Z,34.20
2023-04-14T13:34:22.462Z,32.84
2023-04-14T13:40:24.432Z,32.53
2023-04-14T13:46:26.401Z,34.00
2023-04-14T13:52:28.299Z,36.82
2023-04-14T13:58:30.214Z,34.35
2023-04-14T14:04:37.005Z,32.64
2023-04-14T14:10:39.009Z,35.20
2023-04-14T14:16:40.960Z,30.66
2023-04-14T14:22:42.914Z,30.78
2023-04-14T14:28:45.816Z,32.33
2023-04-14T14:34:47.961Z,30.75
2023-04-14T14:40:49.825Z,29.40
2023-04-14T14:46:52.789Z,31.23
2023-04-14T14:52:56.860Z,32.16
2023-04-14T14:58:58.828Z,32.89
2023-04-14T15:05:01.138Z,32.78
2023-04-14T15:11:03.040Z,32.31
2023-04-14T15:17:05.033Z,35.35
2023-04-14T15:23:07.215Z,34.87
2023-04-14T15:29:09.133Z,36.83
2023-04-14T15:35:11.291Z,35.77
2023-04-14T15:41:13.191Z,38.18
2023-04-14T15:47:15.060Z,39.08
2023-04-14T15:53:16.969Z,39.59
2023-04-14T15:59:21.633Z,40.19
2023-04-14T16:05:23.624Z,42.64
2023-04-14T16:11:25.642Z,45.83
2023-04-14T16:17:27.978Z,48.11
2023-04-14T16:23:29.935Z,44.18
2023-04-14T16:29:31.872Z,44.50
2023-04-14T16:35:34.816Z,41.16
2023-04-14T16:41:36.691Z,37.12
2023-04-14T16:47:38.637Z,39.98
2023-04-14T16:53:40.752Z,43.05
2023-04-14T16:59:42.928Z,45.69
2023-04-14T17:05:44.878Z,47.68
2023-04-14T17:11:46.757Z,50.48
2023-04-14T17:17:49.294Z,51.70
2023-04-14T17:23:51.750Z,53.83
2023-04-14T17:29:53.642Z,55.79
2023-04-14T17:35:55.798Z,57.71
2023-04-14T17:41:58.409Z,59.78
2023-04-14T17:48:00.478Z,60.81
2023-04-14T17:54:05.370Z,60.01
2023-04-14T18:00:09.823Z,62.05
2023-04-14T18:06:11.762Z,65.18
2023-04-14T18:12:13.806Z,65.53
2023-04-14T18:18:15.693Z,67.77
2023-04-14T18:30:22.648Z,73.18
2023-04-14T18:36:24.731Z,74.94
2023-04-14T18:42:27.334Z,76.36
2023-04-14T18:48:29.293Z,78.21
2023-04-14T18:54:31.917Z,79.23
2023-04-14T19:00:34.114Z,77.33
2023-04-14T19:06:36.569Z,76.10
2023-04-14T19:12:40.430Z,76.70
2023-04-14T19:18:42.379Z,76.90
2023-04-14T19:24:44.454Z,77.29
2023-04-14T19:30:46.382Z,78.67
2023-04-14T19:36:49.479Z,80.09
2023-04-14T19:42:54.984Z,80.97
2023-04-14T19:48:57.052Z,80.77
2023-04-14T19:54:59.031Z,80.29
2023-04-14T20:01:01.074Z,80.10
2023-04-14T20:07:03.402Z,81.14
2023-04-14T20:13:05.328Z,81.59
2023-04-14T20:19:07.262Z,82.98
2023-04-14T20:25:09.567Z,84.00
2023-04-14T20:31:11.751Z,85.86
2023-04-14T20:37:13.657Z,86.95
2023-04-14T20:43:15.779Z,87.51
2023-04-14T20:49:17.699Z,86.51
2023-04-14T20:55:20.826Z,86.06
2023-04-14T21:01:25.456Z,86.37
2023-04-14T21:07:29.121Z,86.50
2023-04-14T21:15:30.244Z,85.31
2023-04-14T21:19:53.910Z,86.20
2023-04-14T21:25:56.102Z,87.00
2023-04-14T21:31:58.242Z,87.33
2023-04-14T21:38:00.308Z,88.41
2023-04-14T21:44:02.701Z,88.95
2023-04-14T21:50:05.472Z,89.10
2023-04-14T21:56:10.766Z,90.24
2023-04-14T22:02:13.770Z,91.63
2023-04-14T22:08:16.177Z,92.99
2023-04-14T22:14:18.043Z,92.42
2023-04-14T22:20:19.960Z,92.48
2023-04-14T22:26:21.858Z,93.55
2023-04-14T22:32:23.786Z,93.96
2023-04-14T22:38:25.933Z,93.97
2023-04-14T22:44:27.817Z,94.63
2023-04-14T22:50:30.924Z,94.46
2023-04-14T22:56:32.966Z,95.60
2023-04-14T23:02:36.108Z,95.19
2023-04-14T23:08:38.199Z,95.20
2023-04-14T23:14:40.104Z,95.51
2023-04-14T23:20:41.978Z,95.73
2023-04-14T23:26:44.332Z,96.65
2023-04-14T23:32:46.379Z,95.07
2023-04-14T23:38:48.501Z,95.71
2023-04-14T23:44:50.643Z,95.13
2023-04-14T23:51:00.375Z,95.35
2023-04-14T23:57:13.068Z,96.21
